Time;durP1;ratioP1;P1;durP2;ratioP2;P2;SDS_P1;SDS_P2;PMS_P1;PMS_P2;Temp;Humidity;BMP_temperature;BMP_pressure;BME280_temperature;BME280_humidity;BME280_pressure;Samples;Min_cycle;Max_cycle;Signal;HPM_P1;HPM_P2
2022/04/17 00:00:16;;;;;;;7.50;0.95;;;;;;;20.73;42.09;101253.19;4985084;28;20100;-47
2022/04/17 00:02:42;;;;;;;6.18;1.05;;;;;;;20.73;41.78;101248.72;4980906;28;20137;-43
2022/04/17 00:05:09;;;;;;;5.80;1.05;;;;;;;20.74;42.05;101252.19;4983133;28;20056;-41
2022/04/17 00:07:35;;;;;;;6.90;1.27;;;;;;;20.72;41.87;101249.72;4982336;28;20050;-43
2022/04/17 00:10:02;;;;;;;4.22;1.00;;;;;;;20.72;41.43;101260.31;4980971;28;20080;-41
2022/04/17 00:12:27;;;;;;;6.53;1.38;;;;;;;20.72;41.74;101255.00;4982018;28;20124;-43
2022/04/17 00:14:57;;;;;;;6.22;1.23;;;;;;;20.72;41.74;101251.53;4977406;28;20561;-39
2022/04/17 00:17:23;;;;;;;7.15;1.00;;;;;;;20.71;41.36;101249.91;4976058;28;20030;-39
2022/04/17 00:19:49;;;;;;;4.45;0.80;;;;;;;20.70;41.38;101242.97;4980911;28;20084;-39
2022/04/17 00:22:14;;;;;;;4.68;1.30;;;;;;;20.70;41.73;101237.69;4983925;28;20343;-43
2022/04/17 00:24:40;;;;;;;7.03;1.05;;;;;;;20.67;41.43;101244.19;4983253;28;20513;-40
2022/04/17 00:27:06;;;;;;;7.03;0.80;;;;;;;20.68;41.76;101234.41;4983040;28;20038;-43
2022/04/17 00:29:31;;;;;;;8.30;1.30;;;;;;;20.67;41.27;101233.59;4983386;28;20034;-43
2022/04/17 00:31:57;;;;;;;6.15;0.93;;;;;;;20.66;41.18;101225.84;4982712;28;20438;-39
2022/04/17 00:34:23;;;;;;;7.15;1.00;;;;;;;20.65;41.22;101216.25;4984509;28;20464;-39
2022/04/17 00:36:48;;;;;;;5.00;1.02;;;;;;;20.64;41.33;101223.38;4983982;28;20084;-39
2022/04/17 00:39:14;;;;;;;5.00;1.05;;;;;;;20.64;41.24;101217.25;4983028;28;20036;-41
2022/04/17 00:41:39;;;;;;;4.40;0.65;;;;;;;20.63;41.23;101221.75;4983466;28;20030;-40
2022/04/17 00:44:12;;;;;;;2.95;0.80;;;;;;;20.61;41.29;101228.25;4983270;28;20139;-43
2022/04/17 00:46:38;;;;;;;2.97;0.65;;;;;;;20.62;41.18;101216.63;4983525;28;20604;-42
2022/04/17 00:49:04;;;;;;;5.22;0.80;;;;;;;20.61;41.12;101218.47;4983953;28;20030;-41
2022/04/17 00:51:30;;;;;;;6.45;0.85;;;;;;;20.62;41.33;101227.22;4981866;28;20110;-41
2022/04/17 00:53:57;;;;;;;5.45;0.63;;;;;;;20.62;40.97;101225.41;4983201;28;20038;-42
2022/04/17 00:56:25;;;;;;;2.70;0.60;;;;;;;20.62;41.25;101228.03;4983235;28;20030;-40
2022/04/17 00:58:50;;;;;;;3.92;0.90;;;;;;;20.64;40.91;101227.84;4982138;28;20085;-41
2022/04/17 01:01:16;;;;;;;4.07;0.90;;;;;;;20.65;40.92;101232.97;4984478;28;20018;-46
2022/04/17 01:03:42;;;;;;;2.33;0.65;;;;;;;20.66;41.04;101237.25;4983150;28;20312;-46
2022/04/17 01:06:08;;;;;;;3.75;0.60;;;;;;;20.65;40.81;101232.13;4982698;28;20026;-40
2022/04/17 01:08:34;;;;;;;3.22;0.63;;;;;;;20.65;40.57;101227.66;4982949;28;20350;-42
2022/04/17 01:11:00;;;;;;;3.45;0.70;;;;;;;20.66;40.83;101226.66;4983268;28;20177;-46
2022/04/17 01:13:26;;;;;;;3.95;0.70;;;;;;;20.66;40.62;101225.84;4981595;28;20153;-39
2022/04/17 01:15:54;;;;;;;3.72;0.70;;;;;;;20.68;40.69;101219.34;4983244;28;20022;-39
2022/04/17 01:18:19;;;;;;;3.33;0.75;;;;;;;20.67;40.60;101217.69;4980070;28;20344;-42
2022/04/17 01:20:45;;;;;;;2.72;0.65;;;;;;;20.65;40.18;101217.06;4978630;28;20334;-42
2022/04/17 01:28:39;;;;;;;1.55;0.60;;;;;;;20.61;40.33;101213.16;4985388;28;20096;-44
2022/04/17 01:31:04;;;;;;;1.90;0.50;;;;;;;20.60;40.29;101211.53;4983533;28;20038;-44
2022/04/17 01:33:30;;;;;;;4.70;0.60;;;;;;;20.59;40.13;101215.19;4987804;28;20049;-50
2022/04/17 01:35:55;;;;;;;2.05;0.60;;;;;;;20.59;40.10;101209.91;4983774;28;20038;-39
2022/04/17 01:38:21;;;;;;;2.55;0.60;;;;;;;20.58;39.82;101213.56;4982383;28;20023;-38
2022/04/17 01:40:46;;;;;;;3.45;0.60;;;;;;;20.58;39.68;101213.56;4982206;28;20036;-38
2022/04/17 01:43:12;;;;;;;4.55;0.40;;;;;;;20.57;39.72;101209.28;4983300;28;20022;-41
2022/04/17 01:45:38;;;;;;;3.15;0.47;;;;;;;20.57;39.86;101211.09;4982154;28;20027;-40
2022/04/17 01:48:04;;;;;;;1.55;0.40;;;;;;;20.56;39.45;101214.75;4980038;28;20075;-40
2022/04/17 01:50:30;;;;;;;1.67;0.30;;;;;;;20.54;39.68;101212.28;4982433;28;20045;-39
2022/04/17 01:52:59;;;;;;;2.40;0.47;;;;;;;20.55;39.46;101219.22;4986793;28;20038;-37
2022/04/17 01:55:25;;;;;;;2.38;0.40;;;;;;;20.53;39.43;101216.78;4984323;28;20042;-40
2022/04/17 01:57:51;;;;;;;2.35;0.50;;;;;;;20.53;38.95;101216.78;4988362;28;20038;-39
2022/04/17 02:00:16;;;;;;;1.63;0.30;;;;;;;20.53;39.00;101215.94;4986665;28;20034;-46
2022/04/17 02:02:42;;;;;;;2.33;0.40;;;;;;;20.53;38.82;101211.47;4984821;28;20034;-44
2022/04/17 02:05:07;;;;;;;1.75;0.40;;;;;;;20.52;38.91;101216.97;4984892;28;20045;-42
2022/04/17 02:07:33;;;;;;;1.92;0.30;;;;;;;20.52;39.08;101211.66;4979436;28;20411;-43
2022/04/17 02:09:58;;;;;;;1.88;0.63;;;;;;;20.52;39.19;101222.25;4997471;28;20042;-39
2022/04/17 02:12:23;;;;;;;1.00;0.40;;;;;;;20.52;39.20;101219.59;5102793;23;20520;-41
2022/04/17 02:14:49;;;;;;;1.92;0.70;;;;;;;20.52;39.27;101209.03;5008673;28;20306;-43
2022/04/17 02:17:15;;;;;;;1.65;0.40;;;;;;;20.51;39.62;101210.03;5009375;28;20029;-41
2022/04/17 02:19:40;;;;;;;1.92;0.40;;;;;;;20.51;40.35;101208.19;5009032;28;20030;-39
2022/04/17 02:22:06;;;;;;;1.98;0.38;;;;;;;20.51;40.50;101207.38;5009072;28;20033;-47
2022/04/17 02:24:32;;;;;;;2.13;0.40;;;;;;;20.50;40.55;101201.28;5009112;28;20642;-41
2022/04/17 02:26:57;;;;;;;1.00;0.40;;;;;;;20.50;40.80;101209.22;5009304;28;20120;-45
2022/04/17 02:29:23;;;;;;;3.30;0.50;;;;;;;20.49;40.83;101204.09;5009155;28;20507;-45
2022/04/17 02:31:49;;;;;;;2.88;0.55;;;;;;;20.49;41.12;101198.81;5008793;28;20042;-41
2022/04/17 02:34:14;;;;;;;1.05;0.60;;;;;;;20.48;41.13;101203.28;5007729;28;20230;-43
2022/04/17 02:36:40;;;;;;;2.50;0.40;;;;;;;20.47;41.29;101208.78;5009024;28;20029;-41
2022/04/17 02:39:05;;;;;;;2.35;0.40;;;;;;;20.47;41.36;101211.41;5009087;28;20034;-42
2022/04/17 02:41:31;;;;;;;2.45;0.60;;;;;;;20.46;41.07;101197.38;5008833;28;20488;-45
2022/04/17 02:43:56;;;;;;;3.72;0.90;;;;;;;20.46;41.35;101199.19;5008691;28;20172;-41
2022/04/17 02:49:06;;;;;;;2.83;0.50;;;;;;;20.47;41.19;101208.78;5008930;28;20036;-44
2022/04/17 02:51:33;;;;;;;2.80;0.50;;;;;;;20.48;41.26;101199.81;5009012;28;20730;-40
2022/04/17 02:53:59;;;;;;;1.52;0.43;;;;;;;20.49;41.11;101207.56;5008584;28;20100;-42
2022/04/17 02:56:24;;;;;;;2.40;0.50;;;;;;;20.49;40.84;101215.50;5008573;28;20050;-41
2022/04/17 02:58:52;;;;;;;1.85;0.35;;;;;;;20.49;40.95;101204.09;5008494;28;20424;-40
2022/04/17 03:06:46;;;;;;;1.88;0.40;;;;;;;20.50;40.81;101222.44;5008853;28;20504;-38
2022/04/17 03:09:12;;;;;;;1.27;0.30;;;;;;;20.51;41.15;101223.25;5008121;28;20026;-42
2022/04/17 03:11:37;;;;;;;1.75;0.38;;;;;;;20.50;41.08;101219.81;5008172;28;20033;-49
2022/04/17 03:14:03;;;;;;;1.80;0.60;;;;;;;20.50;41.13;101213.69;5007869;28;20045;-50
2022/04/17 03:16:28;;;;;;;3.53;0.50;;;;;;;20.48;41.05;101208.59;5008050;28;20037;-39
2022/04/17 03:18:54;;;;;;;1.80;0.50;;;;;;;20.48;40.85;101205.94;5008134;28;20032;-44
2022/04/17 03:21:19;;;;;;;1.38;0.38;;;;;;;20.47;40.71;101211.41;5007578;28;20057;-42
2022/04/17 03:23:45;;;;;;;0.77;0.30;;;;;;;20.47;41.20;101214.06;5007285;28;20027;-41
2022/04/17 03:26:10;;;;;;;1.85;0.30;;;;;;;20.46;40.82;101215.91;5007237;28;20079;-49
2022/04/17 03:28:35;;;;;;;1.73;0.50;;;;;;;20.46;41.04;101217.72;5007541;28;20033;-42
2022/04/17 03:31:01;;;;;;;1.13;0.32;;;;;;;20.45;40.96;101208.16;5006984;28;20022;-40
2022/04/17 03:33:28;;;;;;;3.33;0.50;;;;;;;20.45;41.13;101210.78;5007735;28;20044;-40
2022/04/17 03:35:53;;;;;;;1.88;0.30;;;;;;;20.44;40.92;101211.81;5007132;28;20349;-39
2022/04/17 03:38:18;;;;;;;1.40;0.50;;;;;;;20.43;41.19;101213.63;5006861;28;20142;-42
2022/04/17 03:40:44;;;;;;;1.90;0.50;;;;;;;20.42;41.27;101212.00;5007362;28;20508;-41
2022/04/17 03:43:09;;;;;;;2.60;0.50;;;;;;;20.42;41.06;101216.47;5006653;28;20030;-43
2022/04/17 03:45:35;;;;;;;2.03;0.30;;;;;;;20.41;41.41;101217.47;5006865;28;20026;-42
2022/04/17 03:48:00;;;;;;;2.10;0.40;;;;;;;20.41;41.22;101212.19;5006749;28;20091;-41
2022/04/17 03:50:26;;;;;;;1.10;0.40;;;;;;;20.40;41.19;101210.53;5006609;28;20072;-44
2022/04/17 03:52:52;;;;;;;0.90;0.40;;;;;;;20.40;41.33;101215.84;5006894;28;20371;-40
2022/04/17 03:55:17;;;;;;;1.58;0.30;;;;;;;20.38;41.50;101213.38;5006315;28;20045;-39
2022/04/17 03:57:43;;;;;;;0.60;0.30;;;;;;;20.38;41.46;101208.09;5006726;28;20358;-41
2022/04/17 04:00:12;;;;;;;1.00;0.35;;;;;;;20.37;41.57;101218.81;5006914;28;20053;-46
2022/04/17 04:02:40;;;;;;;2.08;0.55;;;;;;;20.37;41.63;101219.66;5006899;28;20045;-44
2022/04/17 04:05:07;;;;;;;2.00;0.40;;;;;;;20.38;41.62;101218.66;5005438;28;20045;-41
2022/04/17 04:07:33;;;;;;;1.98;0.50;;;;;;;20.37;41.59;101221.47;5006700;28;20037;-41
2022/04/17 04:09:58;;;;;;;1.30;0.30;;;;;;;20.37;41.56;101216.19;5006616;28;20679;-42
2022/04/17 04:12:24;;;;;;;1.02;0.20;;;;;;;20.38;41.51;101215.22;5006102;28;20216;-40
2022/04/17 04:14:50;;;;;;;1.92;0.40;;;;;;;20.37;41.50;101229.41;5006133;28;20057;-42
2022/04/17 04:17:15;;;;;;;1.42;0.40;;;;;;;20.36;41.16;101222.47;5006673;28;20521;-45
2022/04/17 04:19:40;;;;;;;2.60;0.30;;;;;;;20.36;41.21;101225.13;5006223;28;20034;-43
2022/04/17 04:22:06;;;;;;;1.73;0.40;;;;;;;20.36;41.42;101235.72;5006362;28;20056;-46
2022/04/17 04:24:31;;;;;;;1.50;0.30;;;;;;;20.35;41.56;101221.66;5005887;28;20026;-46
2022/04/17 04:29:52;;;;;;;2.33;0.63;;;;;;;20.33;41.42;101223.69;4969085;28;20043;-46
2022/04/17 04:32:20;;;;;;;1.42;0.40;;;;;;;20.32;41.27;101232.63;5006439;28;20054;-49
2022/04/17 04:34:46;;;;;;;0.82;0.20;;;;;;;20.33;41.51;101231.63;5005941;28;20030;-41
2022/04/17 04:37:11;;;;;;;1.73;0.40;;;;;;;20.33;41.27;101225.50;5006783;28;20038;-43
2022/04/17 04:39:37;;;;;;;0.75;0.30;;;;;;;20.36;41.24;101230.41;5006069;28;20045;-43
2022/04/17 04:42:03;;;;;;;2.05;0.50;;;;;;;20.34;41.34;101222.69;5006148;28;20034;-43
2022/04/17 04:44:29;;;;;;;2.10;0.30;;;;;;;20.36;41.26;101214.53;5006551;28;20424;-45
2022/04/17 04:46:55;;;;;;;2.08;0.47;;;;;;;20.36;40.85;101233.06;5005589;28;20527;-41
2022/04/17 04:49:30;;;;;;;1.65;0.30;;;;;;;20.36;40.80;101219.84;5006013;28;20143;-43
2022/04/17 04:52:03;;;;;;;1.52;0.40;;;;;;;20.36;41.03;101230.41;5006035;28;20037;-41
2022/04/17 04:54:29;;;;;;;0.82;0.30;;;;;;;20.36;41.13;101236.53;5005972;28;20038;-43
2022/04/17 04:56:55;;;;;;;1.77;0.30;;;;;;;20.38;40.70;101233.72;5005657;28;20038;-44
2022/04/17 04:59:21;;;;;;;0.93;0.40;;;;;;;20.38;40.69;101237.19;5005914;28;20076;-43
2022/04/17 05:01:48;;;;;;;1.00;0.20;;;;;;;20.38;40.70;101247.78;5003135;28;20399;-40
2022/04/17 05:04:14;;;;;;;0.80;0.30;;;;;;;20.38;40.64;101261.00;5003647;28;20034;-43
2022/04/17 05:06:40;;;;;;;1.17;0.35;;;;;;;20.37;40.77;101254.06;5003247;28;20056;-46
2022/04/17 05:09:05;;;;;;;0.80;0.30;;;;;;;20.36;40.74;101249.75;5004161;28;20489;-42
2022/04/17 05:11:31;;;;;;;1.42;0.30;;;;;;;20.36;40.67;101256.88;4997274;28;20057;-41
2022/04/17 05:13:57;;;;;;;1.63;0.43;;;;;;;20.36;40.80;101259.53;5005515;28;20034;-40
2022/04/17 05:16:22;;;;;;;0.77;0.30;;;;;;;20.36;40.88;101251.59;5002498;28;20053;-40
2022/04/17 05:18:52;;;;;;;0.73;0.22;;;;;;;20.36;40.56;101259.53;5004450;28;20061;-43
2022/04/17 05:21:20;;;;;;;1.38;0.30;;;;;;;20.34;40.67;101264.19;5000178;28;20404;-39
2022/04/17 05:23:45;;;;;;;1.08;0.40;;;;;;;20.35;40.50;101257.91;5003313;28;20057;-40
2022/04/17 05:26:10;;;;;;;1.90;0.20;;;;;;;20.34;40.64;101256.25;5009051;28;20064;-43
2022/04/17 05:28:36;;;;;;;0.88;0.20;;;;;;;20.34;40.54;101257.06;5007796;28;20129;-45
2022/04/17 05:31:01;;;;;;;1.17;0.30;;;;;;;20.33;40.65;101251.97;5007015;28;20052;-45
2022/04/17 05:33:27;;;;;;;1.15;0.40;;;;;;;20.33;40.58;101254.63;5008551;28;20033;-46
2022/04/17 05:35:53;;;;;;;0.98;0.30;;;;;;;20.33;40.51;101257.25;5007055;28;20060;-46
2022/04/17 05:38:20;;;;;;;1.25;0.47;;;;;;;20.31;40.42;101244.25;5008769;28;20095;-44
2022/04/17 05:40:48;;;;;;;2.80;0.40;;;;;;;20.30;40.47;101247.91;5007617;28;20025;-45
2022/04/17 05:43:14;;;;;;;0.93;0.30;;;;;;;20.29;40.68;101238.31;5004829;28;20050;-43
2022/04/17 05:45:40;;;;;;;0.93;0.20;;;;;;;20.30;40.55;101241.78;5007840;28;20113;-43
2022/04/17 05:48:09;;;;;;;2.35;0.20;;;;;;;20.28;40.37;101244.63;5006854;28;20072;-48
2022/04/17 05:50:36;;;;;;;0.93;0.30;;;;;;;20.28;40.34;101255.22;5006452;28;20034;-44
2022/04/17 05:53:01;;;;;;;0.90;0.20;;;;;;;20.27;40.50;101253.56;5004204;28;20045;-47
2022/04/17 05:55:27;;;;;;;0.77;0.28;;;;;;;20.27;40.26;101255.41;5008047;28;20030;-44
2022/04/17 05:57:53;;;;;;;0.75;0.30;;;;;;;20.27;40.43;101247.47;5008716;28;20037;-47
2022/04/17 06:00:18;;;;;;;1.25;0.30;;;;;;;20.26;40.40;101253.75;5005517;28;20049;-49
2022/04/17 06:02:47;;;;;;;0.70;0.20;;;;;;;20.26;40.13;101248.47;5008700;28;20473;-44
2022/04/17 06:05:13;;;;;;;0.60;0.30;;;;;;;20.25;40.38;101244.19;5007928;28;20413;-45
2022/04/17 06:07:40;;;;;;;0.90;0.28;;;;;;;20.25;40.17;101249.47;5008600;28;20359;-43
2022/04/17 06:10:08;;;;;;;0.98;0.45;;;;;;;20.25;40.21;101257.41;5002696;28;20022;-45
2022/04/17 06:12:34;;;;;;;1.08;0.30;;;;;;;20.25;40.21;101246.84;5006680;28;20397;-43
2022/04/17 06:15:00;;;;;;;0.82;0.30;;;;;;;20.25;40.50;101250.28;5004290;28;20438;-43
2022/04/17 06:17:26;;;;;;;1.05;0.30;;;;;;;20.26;40.51;101245.81;5005060;28;20043;-45
2022/04/17 06:19:51;;;;;;;0.90;0.30;;;;;;;20.25;40.70;101245.00;5019749;28;20196;-44
2022/04/17 06:22:18;;;;;;;1.10;0.28;;;;;;;20.26;40.78;101235.25;5008001;28;20029;-43
2022/04/17 06:24:44;;;;;;;1.08;0.30;;;;;;;20.25;40.72;101234.41;5006697;28;20029;-44
2022/04/17 06:27:09;;;;;;;1.52;0.30;;;;;;;20.26;40.58;101222.00;5006188;28;20044;-45
2022/04/17 06:29:35;;;;;;;0.95;0.28;;;;;;;20.26;40.76;101219.38;5007216;28;20022;-44
2022/04/17 06:32:00;;;;;;;0.65;0.28;;;;;;;20.26;40.47;101229.94;5007313;28;20255;-42
2022/04/17 06:34:26;;;;;;;1.25;0.30;;;;;;;20.26;40.62;101220.19;5005878;28;20507;-44
2022/04/17 06:36:51;;;;;;;0.40;0.20;;;;;;;20.27;40.53;101210.41;5001290;28;20033;-45
2022/04/17 06:39:16;;;;;;;2.25;0.30;;;;;;;20.28;40.35;101212.06;5006433;28;20030;-44
2022/04/17 06:41:43;;;;;;;0.70;0.20;;;;;;;20.27;40.43;101205.94;5004131;28;20026;-43
2022/04/17 06:44:11;;;;;;;1.33;0.20;;;;;;;20.28;40.67;101218.16;5005945;28;20022;-44
2022/04/17 06:46:37;;;;;;;1.63;0.40;;;;;;;20.30;40.88;101210.03;5005030;28;20037;-44
2022/04/17 06:49:02;;;;;;;1.40;0.30;;;;;;;20.29;40.41;101214.50;5003398;28;20106;-44
2022/04/17 06:51:28;;;;;;;1.95;0.30;;;;;;;20.30;40.67;101216.16;5007799;28;20033;-44
2022/04/17 06:53:53;;;;;;;0.60;0.20;;;;;;;20.30;40.51;101207.41;5002136;28;20037;-44
2022/04/17 06:56:19;;;;;;;0.47;0.20;;;;;;;20.31;40.32;101201.09;5006764;28;20100;-47
2022/04/17 06:58:45;;;;;;;1.05;0.20;;;;;;;20.30;40.26;101196.81;5007311;28;20347;-46
2022/04/17 07:01:11;;;;;;;1.52;0.20;;;;;;;20.30;40.48;101207.41;5002867;28;20044;-45
2022/04/17 07:03:36;;;;;;;0.80;0.30;;;;;;;20.28;40.30;101202.28;5005521;28;20408;-44
2022/04/17 07:06:02;;;;;;;1.77;0.30;;;;;;;20.27;40.26;101189.25;5006011;28;20474;-43
2022/04/17 07:08:28;;;;;;;0.60;0.20;;;;;;;20.26;40.28;101190.25;5006794;28;20030;-41
2022/04/17 07:10:54;;;;;;;1.85;0.20;;;;;;;20.27;40.61;101183.97;5005824;28;20037;-41
2022/04/17 07:13:19;;;;;;;0.70;0.20;;;;;;;20.26;40.86;101188.44;5005381;28;20045;-42
2022/04/17 07:15:45;;;;;;;9.27;0.30;;;;;;;20.27;41.03;101183.97;5006362;28;20037;-45
2022/04/17 07:18:10;;;;;;;2.05;0.25;;;;;;;20.26;41.47;101184.97;5007041;28;20026;-47
2022/04/17 07:20:36;;;;;;;1.98;0.63;;;;;;;20.27;41.90;101179.47;5006170;28;20026;-43
2022/04/17 07:23:01;;;;;;;6.97;0.38;;;;;;;20.29;42.06;101174.81;5007344;28;20027;-40
2022/04/17 07:25:27;;;;;;;1.65;0.30;;;;;;;20.42;42.79;101172.28;5006234;28;20026;-38
2022/04/17 07:27:53;;;;;;;4.28;0.40;;;;;;;20.67;43.29;101174.53;5006586;28;20026;-47
2022/04/17 07:30:30;;;;;;;2.35;0.50;;;;;;;20.96;43.06;101162.88;5006172;28;20041;-46
2022/04/17 07:32:57;;;;;;;3.50;0.55;;;;;;;21.15;47.66;101154.22;5000316;28;20529;-41
2022/04/17 07:35:24;;;;;;;5.68;0.70;;;;;;;21.28;51.16;101172.81;5006273;28;20127;-43
2022/04/17 07:37:51;;;;;;;4.50;0.70;;;;;;;21.30;52.39;101151.44;5007023;28;20029;-41
2022/04/17 07:40:21;;;;;;;1.63;0.40;;;;;;;21.24;51.96;101155.72;5006368;28;20113;-45
2022/04/17 07:42:50;;;;;;;5.85;0.93;;;;;;;21.16;50.68;101137.31;5006522;28;20037;-44
2022/04/17 07:45:17;;;;;;;4.97;0.35;;;;;;;21.08;47.80;101145.41;5006711;28;20113;-51
2022/04/17 07:47:43;;;;;;;5.85;0.30;;;;;;;20.99;46.27;101136.00;5005717;28;20046;-46
2022/04/17 07:50:14;;;;;;;2.90;0.50;;;;;;;20.92;45.76;101121.88;5006421;28;20034;-43
2022/04/17 07:52:41;;;;;;;8.20;0.30;;;;;;;20.86;45.23;101126.94;5005825;28;20052;-44
2022/04/17 07:55:07;;;;;;;0.82;0.28;;;;;;;20.85;44.25;101119.22;5005365;28;20034;-40
2022/04/17 08:00:21;;;;;;;5.90;0.30;;;;;;;20.75;43.56;101114.28;5006077;28;20084;-43
2022/04/17 08:02:54;;;;;;;1.52;0.40;;;;;;;20.74;43.63;101119.78;5005994;28;20465;-45
2022/04/17 08:05:23;;;;;;;2.22;0.30;;;;;;;20.70;43.27;101108.75;5006355;28;20075;-41
2022/04/17 08:07:51;;;;;;;1.23;0.30;;;;;;;20.69;43.50;101109.78;5005426;28;20026;-43
2022/04/17 08:10:17;;;;;;;0.80;0.50;;;;;;;20.66;43.01;101098.75;5001091;28;20034;-47
2022/04/17 08:12:42;;;;;;;2.50;0.20;;;;;;;20.64;42.58;101106.06;5003684;28;20046;-47
2022/04/17 08:15:08;;;;;;;1.90;0.20;;;;;;;20.61;42.25;101101.97;5004035;28;20018;-41
2022/04/17 08:17:34;;;;;;;2.72;0.25;;;;;;;20.58;41.41;101096.25;5006060;28;20409;-40
2022/04/17 08:19:59;;;;;;;7.82;0.45;;;;;;;20.57;41.22;101089.31;5006543;28;20026;-41
2022/04/17 08:22:25;;;;;;;3.25;0.30;;;;;;;20.56;40.74;101091.16;5006764;28;20091;-61
2022/04/17 08:24:50;;;;;;;9.63;0.38;;;;;;;20.48;37.57;101091.31;5006157;28;20393;-48
2022/04/17 08:27:16;;;;;;;5.97;0.30;;;;;;;20.46;36.89;101086.19;5006177;28;20488;-45
2022/04/17 08:29:41;;;;;;;3.28;0.30;;;;;;;20.49;37.67;101087.66;5006068;28;20481;-45
2022/04/17 08:32:07;;;;;;;8.05;0.50;;;;;;;20.49;37.52;101087.66;5005858;28;20044;-44
2022/04/17 08:34:32;;;;;;;1.17;0.30;;;;;;;20.51;37.53;101093.56;5006423;28;20032;-45
2022/04/17 08:36:59;;;;;;;2.35;0.20;;;;;;;20.51;38.05;101086.44;5006200;28;20201;-46
2022/04/17 08:39:25;;;;;;;1.65;0.30;;;;;;;20.52;38.68;101079.31;5005985;28;20127;-45
2022/04/17 08:41:52;;;;;;;7.07;0.57;;;;;;;20.52;39.95;101066.91;5006050;28;20121;-44
2022/04/17 08:44:18;;;;;;;4.00;0.30;;;;;;;20.55;41.23;101081.56;5006104;28;20030;-48
2022/04/17 08:46:43;;;;;;;3.03;0.30;;;;;;;20.56;40.85;101083.22;5005916;28;20095;-46
2022/04/17 08:49:10;;;;;;;8.63;0.68;;;;;;;20.53;39.76;101063.25;5005434;28;20116;-44
2022/04/17 08:51:37;;;;;;;3.92;0.20;;;;;;;20.41;36.27;101090.44;5005947;28;20030;-49
2022/04/17 08:54:03;;;;;;;6.90;0.30;;;;;;;20.32;35.63;101057.97;5005489;28;20041;-45
2022/04/17 08:56:29;;;;;;;0.98;0.30;;;;;;;20.33;34.47;101072.03;5005706;28;20034;-43
2022/04/17 08:58:54;;;;;;;0.73;0.20;;;;;;;20.34;33.59;101063.06;5005673;28;20505;-48
2022/04/17 09:01:21;;;;;;;2.38;0.40;;;;;;;20.34;33.15;101058.59;5005442;28;20457;-45
2022/04/17 09:03:47;;;;;;;3.17;0.40;;;;;;;20.34;33.51;101048.03;5005921;28;20121;-46
2022/04/17 09:06:17;;;;;;;2.92;0.30;;;;;;;20.33;33.49;101048.22;5004896;28;20137;-44
2022/04/17 09:09:03;;;;;;;1.85;0.20;;;;;;;20.30;33.08;101043.34;5005448;28;20030;-45
2022/04/17 09:11:29;;;;;;;1.13;0.28;;;;;;;20.31;33.67;101037.03;5003720;28;20129;-45
2022/04/17 09:14:02;;;;;;;3.75;0.65;;;;;;;20.31;34.36;101023.81;5000763;28;20061;-45
2022/04/17 09:16:29;;;;;;;7.07;0.43;;;;;;;20.30;35.22;101025.63;5001153;28;20390;-43
2022/04/17 09:18:56;;;;;;;2.55;0.30;;;;;;;20.36;36.33;101022.19;4995574;28;20026;-46
2022/04/17 09:21:32;;;;;;;2.60;0.30;;;;;;;20.44;36.75;101018.59;5002626;28;20305;-43
2022/04/17 09:24:19;;;;;;;6.28;0.40;;;;;;;20.45;37.25;101013.09;5001974;28;20034;-44
2022/04/17 09:26:49;;;;;;;4.05;0.20;;;;;;;20.47;37.12;101012.91;5001580;28;20049;-47
2022/04/17 09:29:28;;;;;;;5.70;0.35;;;;;;;20.43;37.09;101022.25;5004336;28;20042;-51
2022/04/17 09:32:02;;;;;;;3.25;0.47;;;;;;;20.41;37.01;100984.59;4996983;28;20399;-54
2022/04/17 09:34:41;;;;;;;2.92;0.28;;;;;;;20.43;37.47;100995.78;4994539;28;20022;-50
2022/04/17 09:37:12;;;;;;;4.15;0.25;;;;;;;20.47;38.66;101002.31;5004666;28;20669;-46
2022/04/17 09:39:38;;;;;;;4.38;0.50;;;;;;;20.52;38.91;101007.84;4998200;28;20113;-49
2022/04/17 09:42:03;;;;;;;7.78;0.63;;;;;;;20.54;38.39;100996.06;5005674;28;20105;-48
2022/04/17 09:44:48;;;;;;;7.60;0.73;;;;;;;20.56;38.21;101010.91;5001727;28;20040;-54
2022/04/17 09:47:16;;;;;;;1.73;0.30;;;;;;;20.59;39.07;100998.13;5000920;28;20049;-56
2022/04/17 09:50:03;;;;;;;4.45;0.30;;;;;;;20.62;41.32;101005.66;4997272;28;20113;-56
2022/04/17 09:52:31;;;;;;;11.30;1.35;;;;;;;20.67;43.76;100997.94;5004183;28;20610;-54
2022/04/17 09:54:58;;;;;;;4.65;0.43;;;;;;;20.60;42.81;100989.16;5002928;28;20429;-54
2022/04/17 09:57:33;;;;;;;4.35;0.60;;;;;;;20.53;42.14;100990.97;5001130;28;20497;-50
2022/04/17 10:00:25;;;;;;;3.78;0.40;;;;;;;20.50;43.03;100978.13;5003933;28;20038;-54
2022/04/17 10:02:51;;;;;;;3.42;0.30;;;;;;;20.48;42.00;100975.66;4995831;28;20096;-50
2022/04/17 10:05:21;;;;;;;10.60;0.95;;;;;;;20.46;40.04;100968.94;5001120;28;20389;-47
2022/04/17 10:07:48;;;;;;;3.00;0.30;;;;;;;20.41;38.47;100963.41;5005020;28;20112;-52
2022/04/17 10:10:15;;;;;;;4.22;0.30;;;;;;;20.37;38.08;100962.94;4999660;28;20041;-48
2022/04/17 10:12:46;;;;;;;2.90;0.30;;;;;;;20.39;38.22;100954.84;5002465;28;20056;-43
2022/04/17 10:15:13;;;;;;;3.35;0.40;;;;;;;20.39;38.51;100949.56;5006690;28;20026;-48
2022/04/17 10:17:41;;;;;;;5.95;0.40;;;;;;;20.40;38.67;100967.06;5004582;28;20033;-45
2022/04/17 10:20:09;;;;;;;6.95;0.40;;;;;;;20.39;38.81;100946.91;5000073;28;20046;-45
2022/04/17 10:22:39;;;;;;;4.38;0.93;;;;;;;20.41;38.54;100945.69;5003276;28;20025;-44
2022/04/17 10:25:08;;;;;;;5.45;0.40;;;;;;;20.42;38.53;100939.41;5005765;28;20077;-51
2022/04/17 10:27:48;;;;;;;3.42;0.40;;;;;;;20.40;37.98;100925.53;5000247;28;20113;-43
2022/04/17 10:30:16;;;;;;;7.72;0.40;;;;;;;20.45;39.95;100930.25;5004262;28;20444;-53
2022/04/17 10:33:19;;;;;;;12.43;1.75;;;;;;;20.77;49.66;100918.16;5000650;28;20350;-45
2022/04/17 10:36:19;;;;;;;27.98;3.83;;;;;;;21.09;47.79;100920.03;5007837;28;20469;-49
2022/04/17 10:39:04;;;;;;;31.05;4.65;;;;;;;21.18;49.37;100896.81;5021871;28;20046;-44
2022/04/17 10:41:30;;;;;;;11.05;1.63;;;;;;;21.30;47.55;100897.00;5005313;28;20382;-48
2022/04/17 10:43:57;;;;;;;23.38;1.40;;;;;;;21.47;48.51;100890.28;5002464;28;20029;-49
2022/04/17 10:46:24;;;;;;;16.55;2.10;;;;;;;21.68;53.73;100882.09;5002929;28;20233;-51
2022/04/17 10:48:57;;;;;;;14.77;1.98;;;;;;;21.84;55.55;100894.09;5000232;28;20127;-47
2022/04/17 10:51:26;;;;;;;20.63;1.77;;;;;;;21.68;50.57;100876.00;5004996;28;20042;-44
2022/04/17 10:54:14;;;;;;;8.05;1.30;;;;;;;21.54;49.71;100883.16;5003224;28;20510;-47
2022/04/17 10:56:56;;;;;;;8.95;0.88;;;;;;;21.42;49.31;100888.25;5005713;28;20046;-46
2022/04/17 10:59:33;;;;;;;23.20;1.75;;;;;;;21.47;49.99;100869.06;5002813;28;20113;-54
2022/04/17 11:02:07;;;;;;;15.80;2.17;;;;;;;21.61;50.87;100859.28;4998000;28;20033;-51
2022/04/17 11:04:55;;;;;;;21.33;5.15;;;;;;;21.82;56.60;100861.66;5002809;28;20037;-49
2022/04/17 11:07:22;;;;;;;17.33;3.38;;;;;;;21.84;54.20;100870.22;4999293;28;20591;-47
2022/04/17 11:10:03;;;;;;;19.02;3.45;;;;;;;21.76;52.73;100862.47;5007234;28;20099;-50
2022/04/17 11:12:29;;;;;;;12.80;3.08;;;;;;;21.66;51.69;100854.16;5007091;28;20042;-48
2022/04/17 11:15:01;;;;;;;12.50;2.08;;;;;;;21.61;53.28;100848.66;5001903;28;20128;-52
2022/04/17 11:17:28;;;;;;;11.05;2.17;;;;;;;21.56;52.52;100851.13;5006216;28;20029;-48
2022/04/17 11:19:58;;;;;;;13.02;1.80;;;;;;;21.53;52.99;100836.44;4998912;28;20457;-45
2022/04/17 11:22:32;;;;;;;9.38;1.65;;;;;;;21.55;53.57;100849.50;4997277;28;20360;-50
2022/04/17 11:24:58;;;;;;;7.80;0.80;;;;;;;21.55;50.90;100833.59;5001596;28;20044;-44
2022/04/17 11:27:41;;;;;;;5.72;1.90;;;;;;;21.52;51.06;100837.47;4993784;28;20045;-42
2022/04/17 11:30:08;;;;;;;13.15;3.13;;;;;;;21.52;50.32;100825.03;5012879;28;20121;-52
2022/04/17 11:32:34;;;;;;;7.03;3.13;;;;;;;21.55;50.81;100817.69;5005316;28;20030;-43
2022/04/17 11:35:04;;;;;;;13.68;5.18;;;;;;;21.66;55.36;100819.69;5006398;28;20036;-45
2022/04/17 11:37:31;;;;;;;14.02;5.00;;;;;;;21.83;58.58;100813.69;5006296;28;20042;-50
2022/04/17 11:40:19;;;;;;;8.68;4.18;;;;;;;22.00;61.07;100814.06;5003396;28;20112;-45
2022/04/17 11:42:47;;;;;;;8.18;3.20;;;;;;;22.12;58.86;100803.63;5014636;28;20548;-48
2022/04/17 11:45:16;;;;;;;11.77;3.05;;;;;;;22.08;59.31;100813.84;5003847;28;20489;-46